Home > Products > Valid Products > TAF

000
FTUS43 KDMX 301009 AAB
TAFOTM
TAF AMD
KOTM 301009Z 3010/3106 21005KT 6SM BR SCT009 BKN040
     FM301200 25006KT 2SM BR SCT003 BKN010
     FM301500 27007KT 5SM BR SCT010
     FM310000 24004KT P6SM SCT100=



000
FTUS43 KDMX 301009 AAC
TAFDSM
TAF AMD
KDSM 301009Z 3010/3106 20004KT 6SM BR SCT012 OVC050
     FM301200 28006KT 2SM BR SCT003 BKN010
     FM301400 29008KT 5SM BR SCT010
     FM301500 28008KT P6SM SCT025
     FM310000 24004KT P6SM SCT100=



000
FTUS43 KDMX 301009 AAC
TAFDSM
TAF AMD
KDSM 301009Z 3010/3106 20004KT 6SM BR SCT012 OVC050
     FM301200 28006KT 2SM BR SCT003 BKN010
     FM301400 29008KT 5SM BR SCT010
     FM301500 28008KT P6SM SCT025
     FM310000 24004KT P6SM SCT100=



000
FTUS43 KDMX 301009 AAB
TAFOTM
TAF AMD
KOTM 301009Z 3010/3106 21005KT 6SM BR SCT009 BKN040
     FM301200 25006KT 2SM BR SCT003 BKN010
     FM301500 27007KT 5SM BR SCT010
     FM310000 24004KT P6SM SCT100=



000
FTUS43 KDMX 300909 AAB
TAFALO
TAF AMD
KALO 300909Z 3009/3106 20004KT 6SM -SHRA BR SCT009 BKN015
      TEMPO 3009/3011 SCT004 BKN008
     FM301100 27004KT 5SM BR SCT020 BKN040
     FM301200 28006KT 2SM BR SCT003 BKN010
     FM301400 30008KT 5SM BR SCT010
     FM301500 28008KT P6SM SCT025
     FM310000 24003KT P6SM SCT080=



000
FTUS43 KDMX 300909 AAB
TAFALO
TAF AMD
KALO 300909Z 3009/3106 20004KT 6SM -SHRA BR SCT009 BKN015
      TEMPO 3009/3011 SCT004 BKN008
     FM301100 27004KT 5SM BR SCT020 BKN040
     FM301200 28006KT 2SM BR SCT003 BKN010
     FM301400 30008KT 5SM BR SCT010
     FM301500 28008KT P6SM SCT025
     FM310000 24003KT P6SM SCT080=



000
FTUS43 KDMX 300906 AAA
TAFMCW
TAF AMD
KMCW 300906Z 3009/3106 30004KT 6SM -SHRA BR SCT006 BKN022 OVC040
      TEMPO 3009/3011 SCT008 BKN015
     FM301100 31005KT 2SM BR SCT003 BKN009
     FM301400 30008KT 5SM BR SCT010
     FM301600 29009KT P6SM SCT025
     FM310000 24003KT P6SM SCT100=



000
FTUS43 KDMX 300906 AAA
TAFMCW
TAF AMD
KMCW 300906Z 3009/3106 30004KT 6SM -SHRA BR SCT006 BKN022 OVC040
      TEMPO 3009/3011 SCT008 BKN015
     FM301100 31005KT 2SM BR SCT003 BKN009
     FM301400 30008KT 5SM BR SCT010
     FM301600 29009KT P6SM SCT025
     FM310000 24003KT P6SM SCT100=



000
FTUS43 KDMX 300903 AAB
TAFFOD
TAF AMD
KFOD 300903Z 3009/3106 VRB04KT 6SM BR SCT005 BKN050
      TEMPO 3009/3011 5SM BR BKN005
     FM301100 30004KT 2SM BR SCT007 BKN040
     FM301400 31006KT 5SM BR SCT010
     FM301530 29006KT P6SM SCT025
     FM310000 21002KT P6SM SCT100=



000
FTUS43 KDMX 300804 AAA
TAFOTM
TAF AMD
KOTM 300804Z 3008/3106 21005KT 6SM BR SCT009 BKN040
     FM301000 25006KT 2SM BR SCT003 BKN010
     FM301500 27007KT 5SM BR SCT010
     FM310000 24004KT P6SM SCT100=



000
FTUS43 KDMX 300804 AAA
TAFOTM
TAF AMD
KOTM 300804Z 3008/3106 21005KT 6SM BR SCT009 BKN040
     FM301000 25006KT 2SM BR SCT003 BKN010
     FM301500 27007KT 5SM BR SCT010
     FM310000 24004KT P6SM SCT100=



000
FTUS43 KDMX 300803 AAB
TAFDSM
TAF AMD
KDSM 300803Z 3008/3106 20004KT 6SM BR SCT012 OVC050
      TEMPO 3008/3010 BKN015
     FM301000 28006KT 2SM BR SCT003 BKN010
     FM301400 29008KT 5SM BR SCT010
     FM301500 28008KT P6SM SCT025
     FM310000 24004KT P6SM SCT100=



000
FTUS43 KDMX 300803 AAB
TAFDSM
TAF AMD
KDSM 300803Z 3008/3106 20004KT 6SM BR SCT012 OVC050
      TEMPO 3008/3010 BKN015
     FM301000 28006KT 2SM BR SCT003 BKN010
     FM301400 29008KT 5SM BR SCT010
     FM301500 28008KT P6SM SCT025
     FM310000 24004KT P6SM SCT100=



000
FTUS43 KDMX 300802 AAA
TAFFOD
TAF AMD
KFOD 300802Z 3008/3106 VRB04KT 6SM BR SCT005 BKN050
      TEMPO 3008/3010 5SM BR SCT008 SCT012
     FM301000 30004KT 2SM BR SCT007 BKN040
     FM301400 31006KT 5SM BR SCT010
     FM301530 29006KT P6SM SCT025
     FM310000 21002KT P6SM SCT100=



000
FTUS43 KDMX 300802 AAA
TAFFOD
TAF AMD
KFOD 300802Z 3008/3106 VRB04KT 6SM BR SCT005 BKN050
      TEMPO 3008/3010 5SM BR SCT008 SCT012
     FM301000 30004KT 2SM BR SCT007 BKN040
     FM301400 31006KT 5SM BR SCT010
     FM301530 29006KT P6SM SCT025
     FM310000 21002KT P6SM SCT100=



000
FTUS43 KDMX 300728 AAA
TAFDSM
TAF AMD
KDSM 300728Z 3007/3106 20004KT 6SM BR SCT012 OVC015
      TEMPO 3007/3009 BKN008
     FM300900 28006KT 2SM BR SCT003 BKN010
     FM301400 29008KT 5SM BR SCT010
     FM301500 28008KT P6SM SCT025
     FM310000 24004KT P6SM SCT100=



000
FTUS43 KDMX 300728 AAA
TAFDSM
TAF AMD
KDSM 300728Z 3007/3106 20004KT 6SM BR SCT012 OVC015
      TEMPO 3007/3009 BKN008
     FM300900 28006KT 2SM BR SCT003 BKN010
     FM301400 29008KT 5SM BR SCT010
     FM301500 28008KT P6SM SCT025
     FM310000 24004KT P6SM SCT100=



000
FTUS43 KDMX 300539 AAA
TAFALO
TAF AMD
KALO 300539Z 3006/3106 20004KT 6SM -SHRA BR SCT009 BKN015
      TEMPO 3006/3009 SCT004 BKN008
     FM300900 27004KT 5SM -SHRA BR SCT020 BKN040
     FM301100 28006KT 2SM BR SCT003 BKN010
     FM301400 30008KT 5SM BR SCT010
     FM301500 28008KT P6SM SCT025
     FM310000 24003KT P6SM SCT080=



000
FTUS43 KDMX 300539 AAA
TAFALO
TAF AMD
KALO 300539Z 3006/3106 20004KT 6SM -SHRA BR SCT009 BKN015
      TEMPO 3006/3009 SCT004 BKN008
     FM300900 27004KT 5SM -SHRA BR SCT020 BKN040
     FM301100 28006KT 2SM BR SCT003 BKN010
     FM301400 30008KT 5SM BR SCT010
     FM301500 28008KT P6SM SCT025
     FM310000 24003KT P6SM SCT080=



000
FTUS43 KDMX 300520
TAFDSM
TAF
KDSM 300520Z 3006/3106 20004KT 5SM -SHRA BR SCT012 OVC022
     FM300900 28006KT 2SM BR SCT003 BKN010
     FM301400 29008KT 5SM BR SCT010
     FM301500 28008KT P6SM SCT025
     FM310000 24004KT P6SM SCT100=



000
FTUS43 KDMX 300520
TAFOTM
TAF
KOTM 300520Z 3006/3106 21005KT 3SM -TSRA BR SCT009 BKN040CB
     FM301000 25006KT 2SM BR SCT003 BKN010
     FM301500 27007KT 5SM BR SCT010
     FM310000 24004KT P6SM SCT100=



000
FTUS43 KDMX 300520
TAFALO
TAF
KALO 300520Z 3006/3106 20004KT 6SM -SHRA BR SCT009 BKN060
     FM300900 27004KT 5SM -SHRA BR SCT020 BKN040
     FM301100 28006KT 2SM BR SCT003 BKN010
     FM301400 30008KT 5SM BR SCT010
     FM301500 28008KT P6SM SCT025
     FM310000 24003KT P6SM SCT080=



000
FTUS43 KDMX 300520
TAFFOD
TAF
KFOD 300520Z 3006/3106 VRB04KT 6SM -SHRA BR SCT005 BKN050
     FM300800 30004KT 2SM BR SCT007 BKN040
     FM301400 31006KT 5SM BR SCT010
     FM301530 29006KT P6SM SCT025
     FM310000 21002KT P6SM SCT100=



000
FTUS43 KDMX 300520
TAFMCW
TAF
KMCW 300520Z 3006/3106 30004KT 6SM -SHRA BR SCT006 BKN022 OVC040
     FM300900 31005KT 2SM BR SCT003 BKN009
     FM301400 30008KT 5SM BR SCT010
     FM301600 29009KT P6SM SCT025
     FM310000 24003KT P6SM SCT100=



000
FTUS43 KDMX 300520
TAFDSM
TAF
KDSM 300520Z 3006/3106 20004KT 5SM -SHRA BR SCT012 OVC022
     FM300900 28006KT 2SM BR SCT003 BKN010
     FM301400 29008KT 5SM BR SCT010
     FM301500 28008KT P6SM SCT025
     FM310000 24004KT P6SM SCT100=



000
FTUS43 KDMX 300520
TAFMCW
TAF
KMCW 300520Z 3006/3106 30004KT 6SM -SHRA BR SCT006 BKN022 OVC040
     FM300900 31005KT 2SM BR SCT003 BKN009
     FM301400 30008KT 5SM BR SCT010
     FM301600 29009KT P6SM SCT025
     FM310000 24003KT P6SM SCT100=



000
FTUS43 KDMX 300520
TAFALO
TAF
KALO 300520Z 3006/3106 20004KT 6SM -SHRA BR SCT009 BKN060
     FM300900 27004KT 5SM -SHRA BR SCT020 BKN040
     FM301100 28006KT 2SM BR SCT003 BKN010
     FM301400 30008KT 5SM BR SCT010
     FM301500 28008KT P6SM SCT025
     FM310000 24003KT P6SM SCT080=



000
FTUS43 KDMX 300520
TAFOTM
TAF
KOTM 300520Z 3006/3106 21005KT 3SM -TSRA BR SCT009 BKN040CB
     FM301000 25006KT 2SM BR SCT003 BKN010
     FM301500 27007KT 5SM BR SCT010
     FM310000 24004KT P6SM SCT100=



000
FTUS43 KDMX 300520
TAFFOD
TAF
KFOD 300520Z 3006/3106 VRB04KT 6SM -SHRA BR SCT005 BKN050
     FM300800 30004KT 2SM BR SCT007 BKN040
     FM301400 31006KT 5SM BR SCT010
     FM301530 29006KT P6SM SCT025
     FM310000 21002KT P6SM SCT100=



000
FTUS43 KDMX 300509 AAA
TAFOTM
TAF AMD
KOTM 300509Z 3005/3024 20005KT 5SM TSRA BR OVC035CB
     FM300900 24006KT 2SM BR SCT003 BKN010
     FM301500 29008KT 5SM BR SCT010
     FM301630 29008KT P6SM SCT030=



000
FTUS43 KDMX 300509 AAA
TAFOTM
TAF AMD
KOTM 300509Z 3005/3024 20005KT 5SM TSRA BR OVC035CB
     FM300900 24006KT 2SM BR SCT003 BKN010
     FM301500 29008KT 5SM BR SCT010
     FM301630 29008KT P6SM SCT030=



000
FTUS43 KDMX 300225 AAC
TAFMCW
TAF AMD
KMCW 300225Z 3002/3024 VRB04KT 6SM -TSRA SCT003 BKN050CB OVC100
     FM300500 29005KT 5SM BR VCSH SCT003 BKN050
     FM300900 30004KT 2SM BR SCT003 BKN010
     FM301500 31007KT 5SM BR SCT010
     FM301630 30009KT P6SM SCT025=



000
FTUS43 KDMX 300225 AAC
TAFMCW
TAF AMD
KMCW 300225Z 3002/3024 VRB04KT 6SM -TSRA SCT003 BKN050CB OVC100
     FM300500 29005KT 5SM BR VCSH SCT003 BKN050
     FM300900 30004KT 2SM BR SCT003 BKN010
     FM301500 31007KT 5SM BR SCT010
     FM301630 30009KT P6SM SCT025=



000
FTUS43 KDMX 300222 AAA
TAFDSM
TAF AMD
KDSM 300222Z 3002/3024 24005KT P6SM -SHRA SCT012 BKN060
     FM300500 26005KT 5SM BR VCSH SCT003 BKN050
     FM300900 29006KT 1SM BR SCT003 BKN010
     FM301500 30008KT 5SM BR SCT010
     FM301630 29007KT P6SM SCT030=



000
FTUS43 KDMX 300048 AAB
TAFMCW
TAF AMD
KMCW 300048Z 3001/3024 VRB04KT 6SM TSRA SCT003 BKN050CB OVC100
      TEMPO 3001/3002 1SM +TSRA BR BKN010CB
     FM300500 29005KT 5SM BR VCSH SCT003 BKN050
     FM300900 30004KT 2SM BR SCT003 BKN010
     FM301500 31007KT 5SM BR SCT010
     FM301630 30009KT P6SM SCT025=



000
FTUS43 KDMX 300006 AAA
TAFMCW
TAF AMD
KMCW 300006Z 3000/3024 VRB04KT 6SM TSRA SCT003 BKN050CB OVC100
     FM300500 29005KT 5SM BR VCSH SCT003 BKN050
     FM300900 30004KT 2SM BR SCT003 BKN010
     FM301500 31007KT 5SM BR SCT010
     FM301630 30009KT P6SM SCT025=



000
FTUS43 KDMX 300006 AAA
TAFMCW
TAF AMD
KMCW 300006Z 3000/3024 VRB04KT 6SM TSRA SCT003 BKN050CB OVC100
     FM300500 29005KT 5SM BR VCSH SCT003 BKN050
     FM300900 30004KT 2SM BR SCT003 BKN010
     FM301500 31007KT 5SM BR SCT010
     FM301630 30009KT P6SM SCT025=



000
FTUS43 KDMX 292341
TAFDSM
TAF
KDSM 292341Z 3000/3024 21005KT P6SM VCSH SCT012 BKN080
     FM300200 VRB04KT 6SM -TSRA SCT003 BKN050CB OVC100
     FM300500 25005KT 5SM BR VCSH SCT003 BKN050
     FM300900 29006KT 1SM BR SCT003 BKN010
     FM301500 30008KT 5SM BR SCT010
     FM301630 29007KT P6SM SCT030=



000
FTUS43 KDMX 292341
TAFOTM
TAF
KOTM 292341Z 3000/3024 17005KT P6SM VCSH SCT012 BKN080
     FM300300 VRB04KT 6SM BR VCTS SCT003 BKN050CB OVC100
     FM300600 23005KT 5SM BR VCSH SCT003 BKN050
     FM301000 24006KT 1SM BR SCT003 BKN010
     FM301500 29008KT 5SM BR SCT010
     FM301630 29008KT P6SM SCT030=



000
FTUS43 KDMX 292341
TAFFOD
TAF
KFOD 292341Z 3000/3024 VRB04KT P6SM -SHRA BKN050 OVC120
     FM300100 VRB04KT 6SM -TSRA SCT003 BKN050CB OVC100
     FM300400 29005KT 5SM BR VCSH SCT003 BKN050
     FM300900 30004KT 1SM BR SCT003 BKN010
     FM301500 31006KT 5SM BR SCT010
     FM301630 30006KT P6SM SCT025=



000
FTUS43 KDMX 292341
TAFALO
TAF
KALO 292341Z 3000/3024 20010KT P6SM -SHRA FEW015 SCT030 BKN070
     FM300300 VRB04KT 6SM -TSRA SCT003 BKN050CB OVC100
     FM300700 26005KT 5SM BR VCSH SCT003 BKN050
     FM301100 28005KT 2SM BR SCT003 BKN010
     FM301500 29007KT 5SM BR SCT009 BKN020
     FM301630 30009KT P6SM SCT025=



000
FTUS43 KDMX 292341
TAFMCW
TAF
KMCW 292341Z 3000/3024 25006KT P6SM BKN060 OVC120
     FM300130 VRB04KT 6SM -TSRA SCT003 BKN050CB OVC100
     FM300500 29005KT 5SM BR VCSH SCT003 BKN050
     FM300900 30004KT 2SM BR SCT003 BKN010
     FM301500 31007KT 5SM BR SCT010
     FM301630 30009KT P6SM SCT025=



000
FTUS43 KDMX 292341
TAFMCW
TAF
KMCW 292341Z 3000/3024 25006KT P6SM BKN060 OVC120
     FM300130 VRB04KT 6SM -TSRA SCT003 BKN050CB OVC100
     FM300500 29005KT 5SM BR VCSH SCT003 BKN050
     FM300900 30004KT 2SM BR SCT003 BKN010
     FM301500 31007KT 5SM BR SCT010
     FM301630 30009KT P6SM SCT025=



000
FTUS43 KDMX 292341
TAFALO
TAF
KALO 292341Z 3000/3024 20010KT P6SM -SHRA FEW015 SCT030 BKN070
     FM300300 VRB04KT 6SM -TSRA SCT003 BKN050CB OVC100
     FM300700 26005KT 5SM BR VCSH SCT003 BKN050
     FM301100 28005KT 2SM BR SCT003 BKN010
     FM301500 29007KT 5SM BR SCT009 BKN020
     FM301630 30009KT P6SM SCT025=



000
FTUS43 KDMX 292341
TAFFOD
TAF
KFOD 292341Z 3000/3024 VRB04KT P6SM -SHRA BKN050 OVC120
     FM300100 VRB04KT 6SM -TSRA SCT003 BKN050CB OVC100
     FM300400 29005KT 5SM BR VCSH SCT003 BKN050
     FM300900 30004KT 1SM BR SCT003 BKN010
     FM301500 31006KT 5SM BR SCT010
     FM301630 30006KT P6SM SCT025=



000
FTUS43 KDMX 292341
TAFOTM
TAF
KOTM 292341Z 3000/3024 17005KT P6SM VCSH SCT012 BKN080
     FM300300 VRB04KT 6SM BR VCTS SCT003 BKN050CB OVC100
     FM300600 23005KT 5SM BR VCSH SCT003 BKN050
     FM301000 24006KT 1SM BR SCT003 BKN010
     FM301500 29008KT 5SM BR SCT010
     FM301630 29008KT P6SM SCT030=



000
FTUS43 KDMX 292341
TAFDSM
TAF
KDSM 292341Z 3000/3024 21005KT P6SM VCSH SCT012 BKN080
     FM300200 VRB04KT 6SM -TSRA SCT003 BKN050CB OVC100
     FM300500 25005KT 5SM BR VCSH SCT003 BKN050
     FM300900 29006KT 1SM BR SCT003 BKN010
     FM301500 30008KT 5SM BR SCT010
     FM301630 29007KT P6SM SCT030=



000
FTUS43 KDMX 292023 AAA
TAFALO
TAF AMD
KALO 292023Z 2920/3018 20011KT P6SM SCT050 BKN120
     FM292100 22007KT P6SM VCTS SCT030CB BKN050 OVC100
      TEMPO 2922/3001 21015G25KT 3SM TSRA BKN025CB
     FM300300 25005KT 6SM BR VCSH SCT020 BKN035 OVC070
     FM300800 28004KT 3SM BR SCT008 BKN014
     FM301500 27008KT 6SM BR SCT010=



000
FTUS43 KDMX 292023 AAA
TAFOTM
TAF AMD
KOTM 292023Z 2920/3018 19009KT P6SM VCTS SCT035CB BKN060 OVC120
      TEMPO 2921/3001 21015G25KT 3SM TSRA BKN025CB
     FM300200 21006KT 6SM BR VCSH SCT020 BKN035 OVC080
     FM300800 27005KT 3SM BR SCT007 BKN013
     FM301500 27008KT 6SM BR SCT012=



000
FTUS43 KDMX 292023 AAA
TAFFOD
TAF AMD
KFOD 292023Z 2920/3018 24008KT P6SM VCSH SCT025 BKN040 OVC080
      TEMPO 2920/2924 5SM -SHRA BKN020
     FM300500 29004KT 3SM BR SCT008 BKN018
     FM301500 29006KT P6SM SCT012=



000
FTUS43 KDMX 292023 AAA
TAFDSM
TAF AMD
KDSM 292023Z 2920/3018 21009KT P6SM VCSH SCT035 BKN060 OVC120
      TEMPO 2921/3001 4SM SHRA BKN025
     FM300300 25006KT 6SM BR VCSH SCT020 BKN035 OVC070
     FM300700 28004KT 3SM BR SCT008 BKN014
     FM301500 27008KT 6SM BR SCT012=



000
FTUS43 KDMX 292023 AAA
TAFDSM
TAF AMD
KDSM 292023Z 2920/3018 21009KT P6SM VCSH SCT035 BKN060 OVC120
      TEMPO 2921/3001 4SM SHRA BKN025
     FM300300 25006KT 6SM BR VCSH SCT020 BKN035 OVC070
     FM300700 28004KT 3SM BR SCT008 BKN014
     FM301500 27008KT 6SM BR SCT012=



000
FTUS43 KDMX 292023 AAA
TAFFOD
TAF AMD
KFOD 292023Z 2920/3018 24008KT P6SM VCSH SCT025 BKN040 OVC080
      TEMPO 2920/2924 5SM -SHRA BKN020
     FM300500 29004KT 3SM BR SCT008 BKN018
     FM301500 29006KT P6SM SCT012=



000
FTUS43 KDMX 292023 AAA
TAFOTM
TAF AMD
KOTM 292023Z 2920/3018 19009KT P6SM VCTS SCT035CB BKN060 OVC120
      TEMPO 2921/3001 21015G25KT 3SM TSRA BKN025CB
     FM300200 21006KT 6SM BR VCSH SCT020 BKN035 OVC080
     FM300800 27005KT 3SM BR SCT007 BKN013
     FM301500 27008KT 6SM BR SCT012=



000
FTUS43 KDMX 292023 AAA
TAFALO
TAF AMD
KALO 292023Z 2920/3018 20011KT P6SM SCT050 BKN120
     FM292100 22007KT P6SM VCTS SCT030CB BKN050 OVC100
      TEMPO 2922/3001 21015G25KT 3SM TSRA BKN025CB
     FM300300 25005KT 6SM BR VCSH SCT020 BKN035 OVC070
     FM300800 28004KT 3SM BR SCT008 BKN014
     FM301500 27008KT 6SM BR SCT010=



000
FTUS43 KDMX 291736
TAFMCW
TAF
KMCW 291736Z 2918/3018 21011KT P6SM SCT100
     FM292200 24009KT P6SM VCSH SCT025 BKN040 OVC080
     FM300200 27006KT 5SM BR VCSH SCT012 BKN024 OVC050
     FM300700 28004KT 3SM BR SCT005 BKN011
     FM301500 28008KT 6SM BR SCT009=



000
FTUS43 KDMX 291736
TAFALO
TAF
KALO 291736Z 2918/3018 19011KT P6SM SCT120
     FM292300 23007KT P6SM VCTS SCT030CB BKN050 OVC100
      TEMPO 2923/3003 22015G25KT 3SM TSRA BKN025CB
     FM300300 25005KT 6SM BR VCSH SCT020 BKN035 OVC070
     FM300800 28004KT 3SM BR SCT008 BKN014
     FM301500 27008KT 6SM BR SCT010=



000
FTUS43 KDMX 291736
TAFFOD
TAF
KFOD 291736Z 2918/3018 22009KT P6SM SCT020 BKN100
      TEMPO 2918/2919 BKN019
     FM292000 24008KT P6SM VCSH SCT025 BKN040 OVC080
     FM300500 29004KT 3SM BR SCT008 BKN018
     FM301500 29006KT P6SM SCT012=



000
FTUS43 KDMX 291736
TAFDSM
TAF
KDSM 291736Z 2918/3018 20011KT P6SM FEW040 SCT120
     FM292100 23009KT P6SM VCTS SCT030CB BKN050 OVC100
      TEMPO 2922/3002 22015G25KT 3SM TSRA BKN025CB
     FM300300 25006KT 6SM BR VCSH SCT020 BKN035 OVC070
     FM300700 28004KT 3SM BR SCT008 BKN014
     FM301500 27008KT 6SM BR SCT012=



000
FTUS43 KDMX 291736
TAFMCW
TAF
KMCW 291736Z 2918/3018 21011KT P6SM SCT100
     FM292200 24009KT P6SM VCSH SCT025 BKN040 OVC080
     FM300200 27006KT 5SM BR VCSH SCT012 BKN024 OVC050
     FM300700 28004KT 3SM BR SCT005 BKN011
     FM301500 28008KT 6SM BR SCT009=



000
FTUS43 KDMX 291736
TAFDSM
TAF
KDSM 291736Z 2918/3018 20011KT P6SM FEW040 SCT120
     FM292100 23009KT P6SM VCTS SCT030CB BKN050 OVC100
      TEMPO 2922/3002 22015G25KT 3SM TSRA BKN025CB
     FM300300 25006KT 6SM BR VCSH SCT020 BKN035 OVC070
     FM300700 28004KT 3SM BR SCT008 BKN014
     FM301500 27008KT 6SM BR SCT012=



000
FTUS43 KDMX 291736
TAFOTM
TAF
KOTM 291736Z 2918/3018 19010KT P6SM SCT120
     FM292200 19009KT P6SM VCTS SCT030CB BKN050 OVC120
      TEMPO 2922/3002 21015G25KT 3SM TSRA BKN025CB
     FM300300 21006KT 6SM BR VCSH SCT020 BKN035 OVC080
     FM300800 27005KT 3SM BR SCT007 BKN013
     FM301500 27008KT 6SM BR SCT012=



000
FTUS43 KDMX 291736
TAFALO
TAF
KALO 291736Z 2918/3018 19011KT P6SM SCT120
     FM292300 23007KT P6SM VCTS SCT030CB BKN050 OVC100
      TEMPO 2923/3003 22015G25KT 3SM TSRA BKN025CB
     FM300300 25005KT 6SM BR VCSH SCT020 BKN035 OVC070
     FM300800 28004KT 3SM BR SCT008 BKN014
     FM301500 27008KT 6SM BR SCT010=



000
FTUS43 KDMX 291736
TAFFOD
TAF
KFOD 291736Z 2918/3018 22009KT P6SM SCT020 BKN100
      TEMPO 2918/2919 BKN019
     FM292000 24008KT P6SM VCSH SCT025 BKN040 OVC080
     FM300500 29004KT 3SM BR SCT008 BKN018
     FM301500 29006KT P6SM SCT012=



000
FTUS43 KDMX 291736
TAFOTM
TAF
KOTM 291736Z 2918/3018 19010KT P6SM SCT120
     FM292200 19009KT P6SM VCTS SCT030CB BKN050 OVC120
      TEMPO 2922/3002 21015G25KT 3SM TSRA BKN025CB
     FM300300 21006KT 6SM BR VCSH SCT020 BKN035 OVC080
     FM300800 27005KT 3SM BR SCT007 BKN013
     FM301500 27008KT 6SM BR SCT012=



000
FTUS43 KDMX 291138
TAFFOD
TAF
KFOD 291138Z 2912/3012 14004KT P6SM SCT040 BKN120
     FM291500 20006KT P6SM SCT010 BKN120
     FM291800 24008KT P6SM VCSH BKN050
     FM292100 26008KT 3SM TSRA OVC040CB
     FM300100 29005KT P6SM VCSH OVC030
     FM300900 25002KT 3SM BR SCT005 BKN070=



000
FTUS43 KDMX 291138
TAFMCW
TAF
KMCW 291138Z 2912/3012 19009KT P6SM VCSH BKN120
      TEMPO 2912/2914 5SM BR BKN005
     FM291500 20011KT P6SM SCT020 BKN150
     FM292000 23009KT P6SM VCSH BKN050
     FM292200 28008KT 3SM TSRA OVC040CB
     FM300200 31006KT 5SM BR VCSH BKN030
     FM300800 29004KT 3SM BR BKN004=



000
FTUS43 KDMX 291138
TAFOTM
TAF
KOTM 291138Z 2912/3012 13006KT 5SM BR FEW010 BKN060
     FM291900 19009KT P6SM BKN035
     FM292300 23010KT P6SM VCSH BKN040
     FM300100 26007KT 4SM TSRA OVC020CB
     FM300500 23006KT P6SM VCSH BKN040
     FM300900 28005KT 2SM BR SCT007 BKN060=



000
FTUS43 KDMX 291138
TAFALO
TAF
KALO 291138Z 2912/3012 VRB02KT P6SM SCT005 BKN100
     FM291500 17012KT P6SM SCT020 BKN150
     FM292000 20012KT P6SM VCSH BKN050
     FM292200 24004KT 3SM TSRA OVC030CB
     FM300400 27004KT P6SM VCSH OVC040
     FM300900 30005KT 3SM BR BKN005 OVC020=



000
FTUS43 KDMX 291138
TAFDSM
TAF
KDSM 291138Z 2912/3012 15008KT P6SM BKN250
     FM291700 19010KT P6SM BKN040
     FM292000 24010KT P6SM VCSH OVC040
     FM292200 27009KT 4SM TSRA OVC030CB
     FM300200 28004KT P6SM VCSH BKN060
     FM300700 31005KT 4SM BR SCT005 BKN020=



000
FTUS43 KDMX 291138
TAFOTM
TAF
KOTM 291138Z 2912/3012 13006KT 5SM BR FEW010 BKN060
     FM291900 19009KT P6SM BKN035
     FM292300 23010KT P6SM VCSH BKN040
     FM300100 26007KT 4SM TSRA OVC020CB
     FM300500 23006KT P6SM VCSH BKN040
     FM300900 28005KT 2SM BR SCT007 BKN060=



000
FTUS43 KDMX 291138
TAFFOD
TAF
KFOD 291138Z 2912/3012 14004KT P6SM SCT040 BKN120
     FM291500 20006KT P6SM SCT010 BKN120
     FM291800 24008KT P6SM VCSH BKN050
     FM292100 26008KT 3SM TSRA OVC040CB
     FM300100 29005KT P6SM VCSH OVC030
     FM300900 25002KT 3SM BR SCT005 BKN070=



000
FTUS43 KDMX 291138
TAFMCW
TAF
KMCW 291138Z 2912/3012 19009KT P6SM VCSH BKN120
      TEMPO 2912/2914 5SM BR BKN005
     FM291500 20011KT P6SM SCT020 BKN150
     FM292000 23009KT P6SM VCSH BKN050
     FM292200 28008KT 3SM TSRA OVC040CB
     FM300200 31006KT 5SM BR VCSH BKN030
     FM300800 29004KT 3SM BR BKN004=



000
FTUS43 KDMX 291138
TAFALO
TAF
KALO 291138Z 2912/3012 VRB02KT P6SM SCT005 BKN100
     FM291500 17012KT P6SM SCT020 BKN150
     FM292000 20012KT P6SM VCSH BKN050
     FM292200 24004KT 3SM TSRA OVC030CB
     FM300400 27004KT P6SM VCSH OVC040
     FM300900 30005KT 3SM BR BKN005 OVC020=



000
FTUS43 KDMX 291138
TAFDSM
TAF
KDSM 291138Z 2912/3012 15008KT P6SM BKN250
     FM291700 19010KT P6SM BKN040
     FM292000 24010KT P6SM VCSH OVC040
     FM292200 27009KT 4SM TSRA OVC030CB
     FM300200 28004KT P6SM VCSH BKN060
     FM300700 31005KT 4SM BR SCT005 BKN020=



000
FTUS43 KDMX 290848 AAB
TAFMCW
TAF AMD
KMCW 290848Z 2909/3006 17011KT P6SM SCT005 BKN080
      TEMPO 2909/2911 BKN005
     FM291100 16008KT 5SM BR BKN010
     FM291500 20010KT 5SM BR BKN006
     FM291630 21008KT P6SM SCT020 BKN150
     FM291900 20009KT P6SM VCSH BKN050
     FM300200 26005KT 5SM BR BKN030=



000
FTUS43 KDMX 290848 AAB
TAFMCW
TAF AMD
KMCW 290848Z 2909/3006 17011KT P6SM SCT005 BKN080
      TEMPO 2909/2911 BKN005
     FM291100 16008KT 5SM BR BKN010
     FM291500 20010KT 5SM BR BKN006
     FM291630 21008KT P6SM SCT020 BKN150
     FM291900 20009KT P6SM VCSH BKN050
     FM300200 26005KT 5SM BR BKN030=



000
FTUS43 KDMX 290841 AAB
TAFALO
TAF AMD
KALO 290841Z 2909/3006 18009KT 6SM -SHRA BR SCT007 OVC100
      TEMPO 2909/2912 4SM -SHRA BR SCT006 BKN020
     FM291200 19010KT 5SM BR BKN006
     FM291630 19011KT P6SM SCT020 BKN150
     FM292000 19009KT P6SM VCSH BKN050
     FM300300 23005KT 5SM BR BKN030=



000
FTUS43 KDMX 290841 AAB
TAFALO
TAF AMD
KALO 290841Z 2909/3006 18009KT 6SM -SHRA BR SCT007 OVC100
      TEMPO 2909/2912 4SM -SHRA BR SCT006 BKN020
     FM291200 19010KT 5SM BR BKN006
     FM291630 19011KT P6SM SCT020 BKN150
     FM292000 19009KT P6SM VCSH BKN050
     FM300300 23005KT 5SM BR BKN030=



000
FTUS43 KDMX 290839 AAA
TAFOTM
TAF AMD
KOTM 290839Z 2909/3006 15007KT P6SM SCT008 BKN070
      TEMPO 2909/2911 BKN008
     FM291100 17009KT 5SM BR BKN060
     FM291500 19009KT P6SM BKN035
     FM292000 19010KT P6SM VCSH BKN040
     FM300400 24006KT P6SM BKN060=



000
FTUS43 KDMX 290839 AAA
TAFOTM
TAF AMD
KOTM 290839Z 2909/3006 15007KT P6SM SCT008 BKN070
      TEMPO 2909/2911 BKN008
     FM291100 17009KT 5SM BR BKN060
     FM291500 19009KT P6SM BKN035
     FM292000 19010KT P6SM VCSH BKN040
     FM300400 24006KT P6SM BKN060=



000
FTUS43 KDMX 290747 AAA
TAFDSM
TAF AMD
KDSM 290747Z 2908/3006 05007KT 6SM -SHRA BR OVC045
     FM291100 19009KT P6SM BKN035
     FM291900 19010KT P6SM VCSH BKN040
     FM300200 24006KT P6SM BKN060=



000
FTUS43 KDMX 290747 AAA
TAFDSM
TAF AMD
KDSM 290747Z 2908/3006 05007KT 6SM -SHRA BR OVC045
     FM291100 19009KT P6SM BKN035
     FM291900 19010KT P6SM VCSH BKN040
     FM300200 24006KT P6SM BKN060=



000
FTUS43 KDMX 290745 AAA
TAFALO
TAF AMD
KALO 290745Z 2908/3006 18009KT 6SM -SHRA BR SCT007 OVC100
     FM291200 19010KT 5SM BR BKN006
     FM291630 19011KT P6SM SCT020 BKN150
     FM292000 19009KT P6SM VCSH BKN050
     FM300300 23005KT 5SM BR BKN030=



000
FTUS43 KDMX 290745 AAA
TAFALO
TAF AMD
KALO 290745Z 2908/3006 18009KT 6SM -SHRA BR SCT007 OVC100
     FM291200 19010KT 5SM BR BKN006
     FM291630 19011KT P6SM SCT020 BKN150
     FM292000 19009KT P6SM VCSH BKN050
     FM300300 23005KT 5SM BR BKN030=



000
FTUS43 KDMX 290744 AAA
TAFMCW
TAF AMD
KMCW 290744Z 2908/3006 17011KT 6SM -SHRA BR SCT005 BKN080
     FM291100 16008KT 5SM BR BKN010
     FM291500 20010KT 5SM BR BKN006
     FM291630 21008KT P6SM SCT020 BKN150
     FM291900 20009KT P6SM VCSH BKN050
     FM300200 26005KT 5SM BR BKN030=



000
FTUS43 KDMX 290742 AAA
TAFFOD
TAF AMD
KFOD 290742Z 2908/3006 15007KT P6SM SCT040 BKN090
     FM291000 18009KT 4SM BR OVC009
     FM291500 20008KT P6SM SCT010 BKN120
     FM291800 20006KT P6SM VCSH BKN050
     FM300000 26005KT P6SM SCT050 BKN150=



000
FTUS43 KDMX 290742 AAA
TAFFOD
TAF AMD
KFOD 290742Z 2908/3006 15007KT P6SM SCT040 BKN090
     FM291000 18009KT 4SM BR OVC009
     FM291500 20008KT P6SM SCT010 BKN120
     FM291800 20006KT P6SM VCSH BKN050
     FM300000 26005KT P6SM SCT050 BKN150=



000
FTUS43 KDMX 290520
TAFOTM
TAF
KOTM 290520Z 2906/3006 15007KT P6SM SCT025 BKN120
     FM291000 17009KT 5SM BR BKN060
     FM291500 19009KT P6SM BKN035
     FM292000 19010KT P6SM VCSH BKN040
     FM300400 24006KT P6SM BKN060=



000
FTUS43 KDMX 290520
TAFFOD
TAF
KFOD 290520Z 2906/3006 15007KT P6SM -TSRA SCT025 BKN040CB
     FM290900 18009KT 4SM BR OVC009
     FM291500 20008KT P6SM SCT010 BKN120
     FM291800 20006KT P6SM VCSH BKN050
     FM300000 26005KT P6SM SCT050 BKN150=



000
FTUS43 KDMX 290520
TAFDSM
TAF
KDSM 290520Z 2906/3006 26007KT 5SM TSRA SCT005 BKN015 OVC025CB
     FM290900 16007KT 5SM BR SCT025 BKN150
     FM291500 19009KT P6SM BKN035
     FM291900 19010KT P6SM VCSH BKN040
     FM300200 24006KT P6SM BKN060=



000
FTUS43 KDMX 290520
TAFALO
TAF
KALO 290520Z 2906/3006 15009KT 5SM -TSRA BR OVC006CB
     FM291000 18009KT 2SM BR OVC006
     FM291500 19010KT 5SM BR BKN006
     FM291630 19011KT P6SM SCT020 BKN150
     FM292000 19009KT P6SM VCSH BKN050
     FM300300 23005KT 5SM BR BKN030=



000
FTUS43 KDMX 290520
TAFMCW
TAF
KMCW 290520Z 2906/3006 15010KT 5SM -TSRA BR OVC005CB
     FM290900 18008KT 1SM BR OVC004
     FM291500 20010KT 5SM BR BKN006
     FM291630 21008KT P6SM SCT020 BKN150
     FM291900 20009KT P6SM VCSH BKN050
     FM300200 26005KT 5SM BR BKN030=



000
FTUS43 KDMX 290520
TAFDSM
TAF
KDSM 290520Z 2906/3006 26007KT 5SM TSRA SCT005 BKN015 OVC025CB
     FM290900 16007KT 5SM BR SCT025 BKN150
     FM291500 19009KT P6SM BKN035
     FM291900 19010KT P6SM VCSH BKN040
     FM300200 24006KT P6SM BKN060=



000
FTUS43 KDMX 290520
TAFMCW
TAF
KMCW 290520Z 2906/3006 15010KT 5SM -TSRA BR OVC005CB
     FM290900 18008KT 1SM BR OVC004
     FM291500 20010KT 5SM BR BKN006
     FM291630 21008KT P6SM SCT020 BKN150
     FM291900 20009KT P6SM VCSH BKN050
     FM300200 26005KT 5SM BR BKN030=



000
FTUS43 KDMX 290520
TAFFOD
TAF
KFOD 290520Z 2906/3006 15007KT P6SM -TSRA SCT025 BKN040CB
     FM290900 18009KT 4SM BR OVC009
     FM291500 20008KT P6SM SCT010 BKN120
     FM291800 20006KT P6SM VCSH BKN050
     FM300000 26005KT P6SM SCT050 BKN150=



000
FTUS43 KDMX 290520
TAFALO
TAF
KALO 290520Z 2906/3006 15009KT 5SM -TSRA BR OVC006CB
     FM291000 18009KT 2SM BR OVC006
     FM291500 19010KT 5SM BR BKN006
     FM291630 19011KT P6SM SCT020 BKN150
     FM292000 19009KT P6SM VCSH BKN050
     FM300300 23005KT 5SM BR BKN030=



000
FTUS43 KDMX 290520
TAFOTM
TAF
KOTM 290520Z 2906/3006 15007KT P6SM SCT025 BKN120
     FM291000 17009KT 5SM BR BKN060
     FM291500 19009KT P6SM BKN035
     FM292000 19010KT P6SM VCSH BKN040
     FM300400 24006KT P6SM BKN060=



000
FTUS43 KDMX 290302 AAA
TAFFOD
TAF AMD
KFOD 290302Z 2903/2924 15007KT P6SM -TSRA SCT007 BKN025CB
     FM290800 18009KT 5SM BR OVC015
     FM291600 20008KT P6SM VCSH SCT020 BKN120=



000
FTUS43 KDMX 290302 AAA
TAFFOD
TAF AMD
KFOD 290302Z 2903/2924 15007KT P6SM -TSRA SCT007 BKN025CB
     FM290800 18009KT 5SM BR OVC015
     FM291600 20008KT P6SM VCSH SCT020 BKN120=



000
FTUS43 KDMX 290301 AAB
TAFDSM
TAF AMD
KDSM 290301Z 2903/2924 28010KT 5SM TSRA SCT005 BKN010 OVC025CB
     FM290800 17007KT 5SM BR SCT025 BKN150
     FM291500 20010KT P6SM BKN035
     FM291900 20009KT P6SM VCSH BKN040=



000
FTUS43 KDMX 290301 AAB
TAFDSM
TAF AMD
KDSM 290301Z 2903/2924 28010KT 5SM TSRA SCT005 BKN010 OVC025CB
     FM290800 17007KT 5SM BR SCT025 BKN150
     FM291500 20010KT P6SM BKN035
     FM291900 20009KT P6SM VCSH BKN040=



000
FTUS43 KDMX 290232 AAA
TAFDSM
TAF AMD
KDSM 290232Z 2903/2924 13008KT P6SM VCTS SCT035 BKN080CB
     FM290300 28010KT 5SM TSRA SCT015 OVC025CB
     FM290800 17007KT 5SM BR SCT025 BKN150
     FM291500 20010KT P6SM BKN035
     FM291900 20009KT P6SM VCSH BKN040=



000
FTUS43 KDMX 290232 AAA
TAFDSM
TAF AMD
KDSM 290232Z 2903/2924 13008KT P6SM VCTS SCT035 BKN080CB
     FM290300 28010KT 5SM TSRA SCT015 OVC025CB
     FM290800 17007KT 5SM BR SCT025 BKN150
     FM291500 20010KT P6SM BKN035
     FM291900 20009KT P6SM VCSH BKN040=



000
FTUS43 KDMX 282331
TAFOTM
TAF
KOTM 282331Z 2900/2924 13008KT P6SM FEW007 SCT050
     FM290400 15008KT P6SM VCSH SCT015 BKN060
     FM290900 17007KT 5SM BR SCT025 BKN150
     FM291500 19009KT P6SM BKN035
     FM292100 20009KT P6SM VCSH BKN040=



000
FTUS43 KDMX 282331
TAFDSM
TAF
KDSM 282331Z 2900/2924 13008KT P6SM VCTS SCT035 BKN080CB
     FM290300 15008KT P6SM VCSH SCT015 BKN060
     FM290900 17007KT 5SM BR SCT025 BKN150
     FM291500 20010KT P6SM BKN035
     FM291900 20009KT P6SM VCSH BKN040=



000
FTUS43 KDMX 282331
TAFFOD
TAF
KFOD 282331Z 2900/2924 15007KT P6SM VCSH SCT020 BKN090
      TEMPO 2900/2903 BKN025
     FM290300 15007KT 4SM BR VCSH SCT007 BKN050
     FM290900 18009KT 5SM BR OVC015
     FM291600 20008KT P6SM VCSH SCT020 BKN120=



000
FTUS43 KDMX 282331
TAFMCW
TAF
KMCW 282331Z 2900/2924 13007KT 5SM BR VCSH OVC009
     FM290300 16007KT 2SM BR VCSH OVC005
     FM290900 18010KT 3/4SM BR OVC004
     FM291500 20011KT 2SM BR BKN006
     FM291630 21008KT P6SM VCSH SCT020 BKN150=



000
FTUS43 KDMX 282331
TAFALO
TAF
KALO 282331Z 2900/2924 14010KT P6SM BKN015 OVC080
     FM290300 16007KT 4SM BR VCSH OVC010
     FM290900 17008KT 2SM BR OVC007
     FM291500 19011KT 5SM BR SCT007 BKN015
     FM291630 20008KT P6SM VCSH SCT020 BKN150=



000
FTUS43 KDMX 282331
TAFFOD
TAF
KFOD 282331Z 2900/2924 15007KT P6SM VCSH SCT020 BKN090
      TEMPO 2900/2903 BKN025
     FM290300 15007KT 4SM BR VCSH SCT007 BKN050
     FM290900 18009KT 5SM BR OVC015
     FM291600 20008KT P6SM VCSH SCT020 BKN120=



000
FTUS43 KDMX 282331
TAFALO
TAF
KALO 282331Z 2900/2924 14010KT P6SM BKN015 OVC080
     FM290300 16007KT 4SM BR VCSH OVC010
     FM290900 17008KT 2SM BR OVC007
     FM291500 19011KT 5SM BR SCT007 BKN015
     FM291630 20008KT P6SM VCSH SCT020 BKN150=



000
FTUS43 KDMX 282331
TAFMCW
TAF
KMCW 282331Z 2900/2924 13007KT 5SM BR VCSH OVC009
     FM290300 16007KT 2SM BR VCSH OVC005
     FM290900 18010KT 3/4SM BR OVC004
     FM291500 20011KT 2SM BR BKN006
     FM291630 21008KT P6SM VCSH SCT020 BKN150=



000
FTUS43 KDMX 282331
TAFDSM
TAF
KDSM 282331Z 2900/2924 13008KT P6SM VCTS SCT035 BKN080CB
     FM290300 15008KT P6SM VCSH SCT015 BKN060
     FM290900 17007KT 5SM BR SCT025 BKN150
     FM291500 20010KT P6SM BKN035
     FM291900 20009KT P6SM VCSH BKN040=



000
FTUS43 KDMX 282331
TAFOTM
TAF
KOTM 282331Z 2900/2924 13008KT P6SM FEW007 SCT050
     FM290400 15008KT P6SM VCSH SCT015 BKN060
     FM290900 17007KT 5SM BR SCT025 BKN150
     FM291500 19009KT P6SM BKN035
     FM292100 20009KT P6SM VCSH BKN040=



000
FTUS43 KDMX 282214 AAB
TAFOTM
TAF AMD
KOTM 282214Z 2822/2918 11010KT P6SM BKN007 BKN100
     FM290000 12007KT 6SM BR FEW010 SCT050
     FM290700 14008KT 5SM BR BKN007
     FM291400 18010KT P6SM FEW010 SCT040 BKN120=



000
FTUS43 KDMX 282214 AAB
TAFOTM
TAF AMD
KOTM 282214Z 2822/2918 11010KT P6SM BKN007 BKN100
     FM290000 12007KT 6SM BR FEW010 SCT050
     FM290700 14008KT 5SM BR BKN007
     FM291400 18010KT P6SM FEW010 SCT040 BKN120=



000
FTUS43 KDMX 282212 AAB
TAFDSM
TAF AMD
KDSM 282212Z 2822/2918 15009KT P6SM SCT025 BKN150
     FM290200 13007KT 6SM BR SCT006 BKN030 OVC080
     FM290500 14007KT 5SM BR VCTS SCT005 BKN020CB OVC050
     FM291500 19011KT P6SM SCT008 BKN035 OVC080=



000
FTUS43 KDMX 282212 AAB
TAFDSM
TAF AMD
KDSM 282212Z 2822/2918 15009KT P6SM SCT025 BKN150
     FM290200 13007KT 6SM BR SCT006 BKN030 OVC080
     FM290500 14007KT 5SM BR VCTS SCT005 BKN020CB OVC050
     FM291500 19011KT P6SM SCT008 BKN035 OVC080=



000
FTUS43 KDMX 282203 AAB
TAFALO
TAF AMD
KALO 282203Z 2822/2918 14012KT 6SM BR VCSH BKN012 OVC060
     FM290500 15008KT 5SM BR VCTS SCT007 BKN022CB OVC060
     FM291500 19011KT P6SM FEW010 SCT035 BKN080=



000
FTUS43 KDMX 282203 AAB
TAFALO
TAF AMD
KALO 282203Z 2822/2918 14012KT 6SM BR VCSH BKN012 OVC060
     FM290500 15008KT 5SM BR VCTS SCT007 BKN022CB OVC060
     FM291500 19011KT P6SM FEW010 SCT035 BKN080=



000
FTUS43 KDMX 282202 AAB
TAFMCW
TAF AMD
KMCW 282202Z 2822/2918 14010G16KT 6SM BR SCT006 BKN015 OVC060
      TEMPO 2822/2824 3SM -SHRA BR BKN005
     FM290000 17009KT 5SM BR BKN005 OVC060
     FM290600 17007KT 3SM BR VCTS BKN004CB OVC040
     FM291500 19011KT 6SM BR SCT008 BKN025 OVC060=



000
FTUS43 KDMX 282202 AAB
TAFMCW
TAF AMD
KMCW 282202Z 2822/2918 14010G16KT 6SM BR SCT006 BKN015 OVC060
      TEMPO 2822/2824 3SM -SHRA BR BKN005
     FM290000 17009KT 5SM BR BKN005 OVC060
     FM290600 17007KT 3SM BR VCTS BKN004CB OVC040
     FM291500 19011KT 6SM BR SCT008 BKN025 OVC060=



000
FTUS43 KDMX 282201 AAB
TAFFOD
TAF AMD
KFOD 282201Z 2822/2918 13009KT P6SM SCT025 BKN060
     FM290100 17007KT P6SM SCT009 BKN060 OVC100
     FM290600 16006KT 5SM BR VCTS SCT006 BKN025CB OVC050
     FM291500 20010KT P6SM SCT010 BKN035 OVC080=



000
FTUS43 KDMX 282201 AAB
TAFFOD
TAF AMD
KFOD 282201Z 2822/2918 13009KT P6SM SCT025 BKN060
     FM290100 17007KT P6SM SCT009 BKN060 OVC100
     FM290600 16006KT 5SM BR VCTS SCT006 BKN025CB OVC050
     FM291500 20010KT P6SM SCT010 BKN035 OVC080=



000
FTUS43 KDMX 282104 AAA
TAFALO
TAF AMD
KALO 282104Z 2821/2918 14011KT 6SM BR SCT015 BKN035 OVC100
      TEMPO 2821/2823 5SM -SHRA BR BKN013
     FM290500 15008KT 5SM BR VCTS SCT007 BKN022CB OVC060
     FM291500 19011KT P6SM FEW010 SCT035 BKN080=



000
FTUS43 KDMX 282104 AAA
TAFFOD
TAF AMD
KFOD 282104Z 2821/2918 13010G16KT P6SM SCT025 BKN050 OVC080
      TEMPO 2821/2823 BKN025
     FM290100 17007KT P6SM SCT009 BKN060 OVC100
     FM290600 16006KT 5SM BR VCTS SCT006 BKN025CB OVC050
     FM291500 20010KT P6SM SCT010 BKN035 OVC080=



000
FTUS43 KDMX 282104 AAA
TAFOTM
TAF AMD
KOTM 282104Z 2821/2918 11010KT P6SM SCT007 BKN035 OVC100
     FM290000 12007KT 6SM BR SCT010 BKN050
     FM290700 14008KT 5SM BR BKN007
     FM291400 18010KT P6SM FEW010 SCT040 BKN120=



000
FTUS43 KDMX 282104 AAA
TAFALO
TAF AMD
KALO 282104Z 2821/2918 14011KT 6SM BR SCT015 BKN035 OVC100
      TEMPO 2821/2823 5SM -SHRA BR BKN013
     FM290500 15008KT 5SM BR VCTS SCT007 BKN022CB OVC060
     FM291500 19011KT P6SM FEW010 SCT035 BKN080=



000
FTUS43 KDMX 282104 AAA
TAFMCW
TAF AMD
KMCW 282104Z 2821/2918 14010G16KT 6SM BR SCT006 BKN035 OVC060
      TEMPO 2821/2824 3SM -SHRA BR BKN005
     FM290000 17009KT 5SM BR BKN005 OVC060
     FM290600 17007KT 3SM BR VCTS BKN004CB OVC040
     FM291500 19011KT 6SM BR SCT008 BKN025 OVC060=



000
FTUS43 KDMX 282104 AAA
TAFDSM
TAF AMD
KDSM 282104Z 2821/2918 14010KT P6SM SCT020 BKN035 OVC100
      TEMPO 2821/2823 BKN015
     FM290200 13007KT 6SM BR SCT006 BKN030 OVC080
     FM290500 14007KT 5SM BR VCTS SCT005 BKN020CB OVC050
     FM291500 19011KT P6SM SCT008 BKN035 OVC080=



000
FTUS43 KDMX 282104 AAA
TAFOTM
TAF AMD
KOTM 282104Z 2821/2918 11010KT P6SM SCT007 BKN035 OVC100
     FM290000 12007KT 6SM BR SCT010 BKN050
     FM290700 14008KT 5SM BR BKN007
     FM291400 18010KT P6SM FEW010 SCT040 BKN120=



000
FTUS43 KDMX 282104 AAA
TAFDSM
TAF AMD
KDSM 282104Z 2821/2918 14010KT P6SM SCT020 BKN035 OVC100
      TEMPO 2821/2823 BKN015
     FM290200 13007KT 6SM BR SCT006 BKN030 OVC080
     FM290500 14007KT 5SM BR VCTS SCT005 BKN020CB OVC050
     FM291500 19011KT P6SM SCT008 BKN035 OVC080=



000
FTUS43 KDMX 282104 AAA
TAFFOD
TAF AMD
KFOD 282104Z 2821/2918 13010G16KT P6SM SCT025 BKN050 OVC080
      TEMPO 2821/2823 BKN025
     FM290100 17007KT P6SM SCT009 BKN060 OVC100
     FM290600 16006KT 5SM BR VCTS SCT006 BKN025CB OVC050
     FM291500 20010KT P6SM SCT010 BKN035 OVC080=



000
FTUS43 KDMX 282104 AAA
TAFMCW
TAF AMD
KMCW 282104Z 2821/2918 14010G16KT 6SM BR SCT006 BKN035 OVC060
      TEMPO 2821/2824 3SM -SHRA BR BKN005
     FM290000 17009KT 5SM BR BKN005 OVC060
     FM290600 17007KT 3SM BR VCTS BKN004CB OVC040
     FM291500 19011KT 6SM BR SCT008 BKN025 OVC060=



000
FTUS43 KDMX 281720
TAFALO
TAF
KALO 281720Z 2818/2918 14011KT 6SM BR FEW010 BKN035 OVC100
      TEMPO 2818/2820 5SM -SHRA BR BKN008
     FM290500 15008KT 5SM BR VCTS SCT007 BKN028CB OVC060
     FM291500 19011KT P6SM FEW010 SCT035 BKN080=



000
FTUS43 KDMX 281720
TAFOTM
TAF
KOTM 281720Z 2818/2918 11010KT 6SM BR VCSH SCT007 BKN030 OVC080
      TEMPO 2818/2821 3SM -SHRA BR BKN005
     FM290000 12007KT 6SM BR SCT010 BKN050
     FM290700 14008KT 5SM BR SCT007 BKN050
     FM291400 18010KT P6SM FEW010 SCT040 BKN120=



000
FTUS43 KDMX 281720
TAFMCW
TAF
KMCW 281720Z 2818/2918 14010G16KT 6SM BR SCT006 BKN035 OVC060
      TEMPO 2818/2821 3SM -SHRA BR BKN005
     FM290100 17009KT 5SM BR BKN005 OVC060
     FM290600 17007KT 3SM BR VCTS BKN004CB OVC040
     FM291500 19011KT 6SM BR SCT008 BKN025 OVC060=



000
FTUS43 KDMX 281720
TAFDSM
TAF
KDSM 281720Z 2818/2918 12008KT 5SM -SHRA BR SCT006 BKN035 OVC100
      TEMPO 2818/2820 BKN005
     FM282000 14010KT 6SM BR FEW008 BKN035 OVC100
     FM290200 13007KT 6SM BR SCT006 BKN030 OVC080
     FM290500 14007KT 5SM BR VCTS SCT005 BKN025CB OVC050
     FM291500 19011KT P6SM SCT008 BKN035 OVC080=



000
FTUS43 KDMX 281720
TAFFOD
TAF
KFOD 281720Z 2818/2918 13010G16KT P6SM FEW007 BKN050 OVC080
      TEMPO 2818/2819 BKN006
     FM290100 17007KT P6SM SCT009 BKN060 OVC100
     FM290600 16006KT 5SM BR VCTS SCT006 BKN030CB OVC050
     FM291500 20010KT P6SM SCT010 BKN035 OVC080=



000
FTUS43 KDMX 281720
TAFOTM
TAF
KOTM 281720Z 2818/2918 11010KT 6SM BR VCSH SCT007 BKN030 OVC080
      TEMPO 2818/2821 3SM -SHRA BR BKN005
     FM290000 12007KT 6SM BR SCT010 BKN050
     FM290700 14008KT 5SM BR SCT007 BKN050
     FM291400 18010KT P6SM FEW010 SCT040 BKN120=



000
FTUS43 KDMX 281720
TAFDSM
TAF
KDSM 281720Z 2818/2918 12008KT 5SM -SHRA BR SCT006 BKN035 OVC100
      TEMPO 2818/2820 BKN005
     FM282000 14010KT 6SM BR FEW008 BKN035 OVC100
     FM290200 13007KT 6SM BR SCT006 BKN030 OVC080
     FM290500 14007KT 5SM BR VCTS SCT005 BKN025CB OVC050
     FM291500 19011KT P6SM SCT008 BKN035 OVC080=



000
FTUS43 KDMX 281720
TAFFOD
TAF
KFOD 281720Z 2818/2918 13010G16KT P6SM FEW007 BKN050 OVC080
      TEMPO 2818/2819 BKN006
     FM290100 17007KT P6SM SCT009 BKN060 OVC100
     FM290600 16006KT 5SM BR VCTS SCT006 BKN030CB OVC050
     FM291500 20010KT P6SM SCT010 BKN035 OVC080=



000
FTUS43 KDMX 281720
TAFALO
TAF
KALO 281720Z 2818/2918 14011KT 6SM BR FEW010 BKN035 OVC100
      TEMPO 2818/2820 5SM -SHRA BR BKN008
     FM290500 15008KT 5SM BR VCTS SCT007 BKN028CB OVC060
     FM291500 19011KT P6SM FEW010 SCT035 BKN080=



000
FTUS43 KDMX 281720
TAFMCW
TAF
KMCW 281720Z 2818/2918 14010G16KT 6SM BR SCT006 BKN035 OVC060
      TEMPO 2818/2821 3SM -SHRA BR BKN005
     FM290100 17009KT 5SM BR BKN005 OVC060
     FM290600 17007KT 3SM BR VCTS BKN004CB OVC040
     FM291500 19011KT 6SM BR SCT008 BKN025 OVC060=



000
FTUS43 KDMX 281554 AAB
TAFOTM
TAF AMD
KOTM 281554Z 2816/2912 11008KT 6SM BR VCSH SCT007 BKN035 OVC100
      TEMPO 2816/2819 3SM -SHRA BR BKN005
     FM290000 12007KT 6SM BR SCT010 BKN050
     FM290700 14008KT 5SM BR SCT007 BKN050=



000
FTUS43 KDMX 281554 AAA
TAFMCW
TAF AMD
KMCW 281554Z 2816/2912 13009KT 4SM -SHRA BR BKN006 OVC040
     FM281800 15011KT 6SM BR SCT007 BKN035 OVC090
      TEMPO 2818/2820 5SM BR BKN006
     FM290200 17009KT 5SM BR BKN005 OVC060
     FM290600 17007KT 3SM BR VCTS BKN004CB OVC040=



000
FTUS43 KDMX 281554 AAB
TAFOTM
TAF AMD
KOTM 281554Z 2816/2912 11008KT 6SM BR VCSH SCT007 BKN035 OVC100
      TEMPO 2816/2819 3SM -SHRA BR BKN005
     FM290000 12007KT 6SM BR SCT010 BKN050
     FM290700 14008KT 5SM BR SCT007 BKN050=



000
FTUS43 KDMX 281554 AAA
TAFFOD
TAF AMD
KFOD 281554Z 2816/2912 15009KT P6SM BKN006 OVC040
     FM281700 16010KT P6SM SCT007 BKN035 OVC100
      TEMPO 2817/2819 BKN006
     FM290200 17007KT P6SM SCT006 BKN030 OVC080
     FM290600 16006KT 5SM BR VCTS SCT005 BKN025CB OVC050=



000
FTUS43 KDMX 281554 AAB
TAFDSM
TAF AMD
KDSM 281554Z 2816/2912 12008KT 3SM SHRA BR SCT006 BKN030 OVC080
      TEMPO 2816/2818 2SM SHRA BR BKN005
     FM281900 14010KT 6SM BR SCT008 BKN035 OVC100
     FM290200 13007KT 6SM BR SCT006 BKN030 OVC080
     FM290500 14007KT 5SM BR VCTS SCT005 BKN025CB OVC050=



000
FTUS43 KDMX 281554 AAA
TAFALO
TAF AMD
KALO 281554Z 2816/2912 13008KT 4SM -SHRA BR SCT008 BKN035 OVC060
      TEMPO 2816/2818 BKN007
     FM281800 14010KT 6SM BR SCT009 BKN040 OVC100
     FM290500 15008KT 5SM BR VCTS SCT007 BKN028CB OVC060=



000
FTUS43 KDMX 281554 AAA
TAFFOD
TAF AMD
KFOD 281554Z 2816/2912 15009KT P6SM BKN006 OVC040
     FM281700 16010KT P6SM SCT007 BKN035 OVC100
      TEMPO 2817/2819 BKN006
     FM290200 17007KT P6SM SCT006 BKN030 OVC080
     FM290600 16006KT 5SM BR VCTS SCT005 BKN025CB OVC050=



000
FTUS43 KDMX 281234 AAA
TAFDSM
TAF AMD
KDSM 281234Z 2813/2912 11005KT 6SM -SHRA SCT015 OVC100
      TEMPO 2813/2814 4SM -TSRA BR BKN025CB
     FM281500 12009KT 3SM -TSRA BKN015CB OVC030
     FM281800 15009KT 6SM BR VCSH SCT015 OVC030
     FM290000 16008KT P6SM OVC040
     FM290700 15008KT 4SM -TSRA BR SCT010 OVC050CB
     FM291000 18009KT P6SM VCSH OVC080=



000
FTUS43 KDMX 281234 AAA
TAFDSM
TAF AMD
KDSM 281234Z 2813/2912 11005KT 6SM -SHRA SCT015 OVC100
      TEMPO 2813/2814 4SM -TSRA BR BKN025CB
     FM281500 12009KT 3SM -TSRA BKN015CB OVC030
     FM281800 15009KT 6SM BR VCSH SCT015 OVC030
     FM290000 16008KT P6SM OVC040
     FM290700 15008KT 4SM -TSRA BR SCT010 OVC050CB
     FM291000 18009KT P6SM VCSH OVC080=



000
FTUS43 KDMX 281232 AAA
TAFOTM
TAF AMD
KOTM 281232Z 2813/2912 10007KT P6SM SCT009 SCT022 BKN100
      TEMPO 2813/2814 BKN009
     FM281400 12009KT 3SM -TSRA BKN015CB OVC030
     FM281800 10009KT 6SM BR VCSH SCT015 OVC030
     FM290000 13008KT P6SM VCSH OVC040
     FM290700 16008KT P6SM OVC050
     FM291000 19009KT P6SM OVC080=



000
FTUS43 KDMX 281232 AAA
TAFOTM
TAF AMD
KOTM 281232Z 2813/2912 10007KT P6SM SCT009 SCT022 BKN100
      TEMPO 2813/2814 BKN009
     FM281400 12009KT 3SM -TSRA BKN015CB OVC030
     FM281800 10009KT 6SM BR VCSH SCT015 OVC030
     FM290000 13008KT P6SM VCSH OVC040
     FM290700 16008KT P6SM OVC050
     FM291000 19009KT P6SM OVC080=



000
FTUS43 KDMX 281125
TAFFOD
TAF
KFOD 281125Z 2812/2912 13005KT P6SM VCSH SCT015 OVC035
     FM281500 13009KT 4SM -TSRA BR SCT005 OVC012CB
     FM281800 15009KT 6SM BR VCSH SCT015 OVC030
     FM282100 18007KT 4SM -TSRA OVC035CB
     FM290100 14006KT P6SM VCSH OVC030
     FM290800 17008KT 3SM -TSRA BR OVC020CB=



000
FTUS43 KDMX 281125
TAFFOD
TAF
KFOD 281125Z 2812/2912 13005KT P6SM VCSH SCT015 OVC035
     FM281500 13009KT 4SM -TSRA BR SCT005 OVC012CB
     FM281800 15009KT 6SM BR VCSH SCT015 OVC030
     FM282100 18007KT 4SM -TSRA OVC035CB
     FM290100 14006KT P6SM VCSH OVC030
     FM290800 17008KT 3SM -TSRA BR OVC020CB=



000
FTUS43 KDMX 281120
TAFMCW
TAF
KMCW 281120Z 2812/2912 11005KT P6SM VCSH SCT060 OVC120
     FM281700 15008KT 3SM -TSRA BR SCT005 OVC015CB
     FM282100 12005KT P6SM VCSH OVC012
     FM290700 17006KT 3SM -TSRA OVC010CB
     FM291000 17005KT 3SM BR VCSH OVC010=



000
FTUS43 KDMX 281120
TAFMCW
TAF
KMCW 281120Z 2812/2912 11005KT P6SM VCSH SCT060 OVC120
     FM281700 15008KT 3SM -TSRA BR SCT005 OVC015CB
     FM282100 12005KT P6SM VCSH OVC012
     FM290700 17006KT 3SM -TSRA OVC010CB
     FM291000 17005KT 3SM BR VCSH OVC010=



000
FTUS43 KDMX 281120
TAFDSM
TAF
KDSM 281120Z 2812/2912 11005KT P6SM VCSH SCT015 OVC100
     FM281400 12009KT 3SM -TSRA BKN015CB OVC030
     FM281800 15009KT 6SM BR VCSH SCT015 OVC030
     FM290000 16008KT P6SM OVC040
     FM290700 15008KT 4SM -TSRA BR SCT010 OVC050CB
     FM291000 18009KT P6SM VCSH OVC080=



000
FTUS43 KDMX 281120
TAFALO
TAF
KALO 281120Z 2812/2912 10005KT P6SM BKN100
     FM281700 12011KT 4SM -TSRA BR SCT007 OVC015CB
     FM282000 13009KT 6SM BR VCSH SCT015 OVC030
     FM290300 15008KT 3SM -TSRA OVC015CB
     FM290700 16008KT P6SM VCSH OVC020=



000
FTUS43 KDMX 281120
TAFOTM
TAF
KOTM 281120Z 2812/2912 10007KT P6SM SCT022 BKN100
     FM281400 12009KT 3SM -TSRA BKN015CB OVC030
     FM281800 10009KT 6SM BR VCSH SCT015 OVC030
     FM290000 13008KT P6SM VCSH OVC040
     FM290700 16008KT P6SM OVC050
     FM291000 19009KT P6SM OVC080=



000
FTUS43 KDMX 281120
TAFFOD
TAF
KFOD 281120Z 2812/2912 13005KT P6SM VCSH OVC017
     FM281500 13009KT 4SM -TSRA BR SCT005 OVC012CB
     FM281800 15009KT 6SM BR VCSH SCT015 OVC030
     FM282100 18007KT 4SM -TSRA OVC035CB
     FM290100 14006KT P6SM VCSH OVC030
     FM290800 17008KT 3SM -TSRA BR OVC020CB=



000
FTUS43 KDMX 281120
TAFFOD
TAF
KFOD 281120Z 2812/2912 13005KT P6SM VCSH OVC017
     FM281500 13009KT 4SM -TSRA BR SCT005 OVC012CB
     FM281800 15009KT 6SM BR VCSH SCT015 OVC030
     FM282100 18007KT 4SM -TSRA OVC035CB
     FM290100 14006KT P6SM VCSH OVC030
     FM290800 17008KT 3SM -TSRA BR OVC020CB=



000
FTUS43 KDMX 281120
TAFOTM
TAF
KOTM 281120Z 2812/2912 10007KT P6SM SCT022 BKN100
     FM281400 12009KT 3SM -TSRA BKN015CB OVC030
     FM281800 10009KT 6SM BR VCSH SCT015 OVC030
     FM290000 13008KT P6SM VCSH OVC040
     FM290700 16008KT P6SM OVC050
     FM291000 19009KT P6SM OVC080=



000
FTUS43 KDMX 281120
TAFDSM
TAF
KDSM 281120Z 2812/2912 11005KT P6SM VCSH SCT015 OVC100
     FM281400 12009KT 3SM -TSRA BKN015CB OVC030
     FM281800 15009KT 6SM BR VCSH SCT015 OVC030
     FM290000 16008KT P6SM OVC040
     FM290700 15008KT 4SM -TSRA BR SCT010 OVC050CB
     FM291000 18009KT P6SM VCSH OVC080=



000
FTUS43 KDMX 281120
TAFALO
TAF
KALO 281120Z 2812/2912 10005KT P6SM BKN100
     FM281700 12011KT 4SM -TSRA BR SCT007 OVC015CB
     FM282000 13009KT 6SM BR VCSH SCT015 OVC030
     FM290300 15008KT 3SM -TSRA OVC015CB
     FM290700 16008KT P6SM VCSH OVC020=



000
FTUS43 KDMX 280520
TAFMCW
TAF
KMCW 280520Z 2806/2906 11006KT P6SM BKN040
     FM280800 11007KT 5SM BR VCSH SCT015 OVC030
     FM281200 12011KT 4SM -TSRA BR SCT007 OVC015CB
     FM281900 14008KT 6SM BR VCSH SCT015 OVC030
     FM290300 13007KT 3SM BR VCSH OVC010=



000
FTUS43 KDMX 280520
TAFFOD
TAF
KFOD 280520Z 2806/2906 11006KT 6SM BR VCSH SCT015 BKN035
     FM281000 13010KT 4SM -TSRA BR SCT005 OVC012CB
     FM281600 16009KT 6SM BR VCSH SCT015 OVC030=



000
FTUS43 KDMX 280520
TAFDSM
TAF
KDSM 280520Z 2806/2906 09005KT P6SM SCT025 BKN080
     FM280800 12008KT 5SM BR VCSH SCT015 OVC035
     FM281200 13010KT 3SM -TSRA BR SCT007 OVC012CB
     FM281800 16011KT 6SM BR VCSH SCT015 OVC030
     FM290000 16008KT P6SM BKN040=



000
FTUS43 KDMX 280520
TAFALO
TAF
KALO 280520Z 2806/2906 08005KT P6SM BKN040
     FM280900 11007KT 5SM BR VCSH SCT015 OVC030
     FM281400 12011KT 4SM -TSRA BR SCT007 OVC015CB
     FM282000 13009KT 6SM BR VCSH SCT015 OVC030
     FM290300 15008KT 5SM BR VCSH OVC015=



000
FTUS43 KDMX 280520
TAFOTM
TAF
KOTM 280520Z 2806/2906 09005KT P6SM BKN150
     FM280800 09007KT 5SM BR VCSH SCT015 OVC035
     FM281400 13010KT 3SM -TSRA BR SCT007 OVC012CB
     FM282000 15009KT 6SM BR VCSH SCT015 OVC030
     FM290000 15008KT P6SM BKN040=



000
FTUS43 KDMX 280520
TAFOTM
TAF
KOTM 280520Z 2806/2906 09005KT P6SM BKN150
     FM280800 09007KT 5SM BR VCSH SCT015 OVC035
     FM281400 13010KT 3SM -TSRA BR SCT007 OVC012CB
     FM282000 15009KT 6SM BR VCSH SCT015 OVC030
     FM290000 15008KT P6SM BKN040=



000
FTUS43 KDMX 280520
TAFDSM
TAF
KDSM 280520Z 2806/2906 09005KT P6SM SCT025 BKN080
     FM280800 12008KT 5SM BR VCSH SCT015 OVC035
     FM281200 13010KT 3SM -TSRA BR SCT007 OVC012CB
     FM281800 16011KT 6SM BR VCSH SCT015 OVC030
     FM290000 16008KT P6SM BKN040=



000
FTUS43 KDMX 280520
TAFALO
TAF
KALO 280520Z 2806/2906 08005KT P6SM BKN040
     FM280900 11007KT 5SM BR VCSH SCT015 OVC030
     FM281400 12011KT 4SM -TSRA BR SCT007 OVC015CB
     FM282000 13009KT 6SM BR VCSH SCT015 OVC030
     FM290300 15008KT 5SM BR VCSH OVC015=



000
FTUS43 KDMX 280520
TAFMCW
TAF
KMCW 280520Z 2806/2906 11006KT P6SM BKN040
     FM280800 11007KT 5SM BR VCSH SCT015 OVC030
     FM281200 12011KT 4SM -TSRA BR SCT007 OVC015CB
     FM281900 14008KT 6SM BR VCSH SCT015 OVC030
     FM290300 13007KT 3SM BR VCSH OVC010=



000
FTUS43 KDMX 280520
TAFFOD
TAF
KFOD 280520Z 2806/2906 11006KT 6SM BR VCSH SCT015 BKN035
     FM281000 13010KT 4SM -TSRA BR SCT005 OVC012CB
     FM281600 16009KT 6SM BR VCSH SCT015 OVC030=



000
FTUS43 KDMX 272333
TAFDSM
TAF
KDSM 272333Z 2800/2824 10005KT P6SM SCT015 BKN150
     FM280700 12008KT 5SM BR VCSH SCT015 OVC035
     FM281100 14010KT 3SM -TSRA BR SCT007 OVC012CB
     FM281600 18010KT 6SM BR VCSH SCT015 OVC035=



000
FTUS43 KDMX 272333
TAFOTM
TAF
KOTM 272333Z 2800/2824 08005KT P6SM SCT015 BKN150
     FM280800 11007KT 5SM BR VCSH SCT015 OVC035
     FM281200 13008KT 3SM -TSRA BR SCT007 OVC012CB
     FM281700 16010KT 6SM BR VCSH SCT015 OVC035=



000
FTUS43 KDMX 272333
TAFFOD
TAF
KFOD 272333Z 2800/2824 10005KT P6SM SCT030 BKN150
     FM280300 11005KT P6SM SCT015 BKN022
     FM280600 12007KT 5SM BR VCSH OVC015
     FM281000 13010KT 4SM -TSRA BR SCT007 OVC012CB
     FM281500 17009KT 6SM BR VCSH SCT015 OVC030=



000
FTUS43 KDMX 272333
TAFMCW
TAF
KMCW 272333Z 2800/2824 11005KT P6SM SCT035 BKN180
     FM280600 12006KT P6SM SCT015 BKN035
     FM280800 12007KT 5SM BR VCSH OVC020
     FM281200 13010KT 3SM -TSRA BR SCT007 OVC015CB
     FM281700 17009KT 6SM BR VCSH SCT015 OVC030=



000
FTUS43 KDMX 272333
TAFALO
TAF
KALO 272333Z 2800/2824 11005KT P6SM SCT035 BKN180
     FM280600 12006KT P6SM SCT015 BKN035
     FM280800 12007KT 5SM BR VCSH OVC020
     FM281200 13010KT 3SM -TSRA BR SCT007 OVC015CB
     FM281700 14011KT 6SM BR VCSH SCT015 OVC030=



000
FTUS43 KDMX 272333
TAFMCW
TAF
KMCW 272333Z 2800/2824 11005KT P6SM SCT035 BKN180
     FM280600 12006KT P6SM SCT015 BKN035
     FM280800 12007KT 5SM BR VCSH OVC020
     FM281200 13010KT 3SM -TSRA BR SCT007 OVC015CB
     FM281700 17009KT 6SM BR VCSH SCT015 OVC030=



000
FTUS43 KDMX 272333
TAFALO
TAF
KALO 272333Z 2800/2824 11005KT P6SM SCT035 BKN180
     FM280600 12006KT P6SM SCT015 BKN035
     FM280800 12007KT 5SM BR VCSH OVC020
     FM281200 13010KT 3SM -TSRA BR SCT007 OVC015CB
     FM281700 14011KT 6SM BR VCSH SCT015 OVC030=



000
FTUS43 KDMX 272333
TAFFOD
TAF
KFOD 272333Z 2800/2824 10005KT P6SM SCT030 BKN150
     FM280300 11005KT P6SM SCT015 BKN022
     FM280600 12007KT 5SM BR VCSH OVC015
     FM281000 13010KT 4SM -TSRA BR SCT007 OVC012CB
     FM281500 17009KT 6SM BR VCSH SCT015 OVC030=



000
FTUS43 KDMX 272333
TAFOTM
TAF
KOTM 272333Z 2800/2824 08005KT P6SM SCT015 BKN150
     FM280800 11007KT 5SM BR VCSH SCT015 OVC035
     FM281200 13008KT 3SM -TSRA BR SCT007 OVC012CB
     FM281700 16010KT 6SM BR VCSH SCT015 OVC035=



000
FTUS43 KDMX 272333
TAFDSM
TAF
KDSM 272333Z 2800/2824 10005KT P6SM SCT015 BKN150
     FM280700 12008KT 5SM BR VCSH SCT015 OVC035
     FM281100 14010KT 3SM -TSRA BR SCT007 OVC012CB
     FM281600 18010KT 6SM BR VCSH SCT015 OVC035=



000
FTUS43 KDMX 271728
TAFOTM
TAF
KOTM 271728Z 2718/2818 07006KT P6SM VCSH FEW060 BKN120
     FM271900 10006KT P6SM SCT070 BKN120
     FM281200 12007KT 5SM -RA VCTS SCT030CB BKN050=



000
FTUS43 KDMX 271728
TAFDSM
TAF
KDSM 271728Z 2718/2818 14005KT P6SM VCSH FEW015 SCT070 OVC150
     FM272000 13005KT P6SM SCT025 OVC150
     FM280800 12006KT P6SM VCTS SCT021CB BKN035
     FM281200 12007KT 5SM -TSRA BR BKN023CB OVC035=



000
FTUS43 KDMX 271728
TAFFOD
TAF
KFOD 271728Z 2718/2818 12005KT P6SM VCSH BKN100
     FM272200 13006KT P6SM SCT025 BKN070
     FM280600 13007KT P6SM VCTS SCT025CB BKN040
     FM281000 15006KT 3SM -TSRA BR BKN018CB OVC030=



000
FTUS43 KDMX 271728
TAFMCW
TAF
KMCW 271728Z 2718/2818 11005KT P6SM BKN070
     FM280800 12007KT P6SM VCTS SCT015CB BKN035
     FM281200 14006KT 3SM -TSRA BR BKN017CB OVC028=



000
FTUS43 KDMX 271728
TAFALO
TAF
KALO 271728Z 2718/2818 08005KT P6SM BKN080 OVC140
     FM280900 11006KT P6SM VCTS SCT025CB BKN040
     FM281300 13008KT 3SM -TSRA BR BKN018CB OVC030=



000
FTUS43 KDMX 271728
TAFFOD
TAF
KFOD 271728Z 2718/2818 12005KT P6SM VCSH BKN100
     FM272200 13006KT P6SM SCT025 BKN070
     FM280600 13007KT P6SM VCTS SCT025CB BKN040
     FM281000 15006KT 3SM -TSRA BR BKN018CB OVC030=



000
FTUS43 KDMX 271728
TAFDSM
TAF
KDSM 271728Z 2718/2818 14005KT P6SM VCSH FEW015 SCT070 OVC150
     FM272000 13005KT P6SM SCT025 OVC150
     FM280800 12006KT P6SM VCTS SCT021CB BKN035
     FM281200 12007KT 5SM -TSRA BR BKN023CB OVC035=



000
FTUS43 KDMX 271728
TAFALO
TAF
KALO 271728Z 2718/2818 08005KT P6SM BKN080 OVC140
     FM280900 11006KT P6SM VCTS SCT025CB BKN040
     FM281300 13008KT 3SM -TSRA BR BKN018CB OVC030=



000
FTUS43 KDMX 271728
TAFMCW
TAF
KMCW 271728Z 2718/2818 11005KT P6SM BKN070
     FM280800 12007KT P6SM VCTS SCT015CB BKN035
     FM281200 14006KT 3SM -TSRA BR BKN017CB OVC028=



000
FTUS43 KDMX 271728
TAFOTM
TAF
KOTM 271728Z 2718/2818 07006KT P6SM VCSH FEW060 BKN120
     FM271900 10006KT P6SM SCT070 BKN120
     FM281200 12007KT 5SM -RA VCTS SCT030CB BKN050=



000
FTUS43 KDMX 271141
TAFFOD
TAF
KFOD 271141Z 2712/2812 07006KT P6SM SCT040 BKN070
     FM271600 11006KT P6SM SCT040 BKN080
     FM280400 13005KT P6SM VCTS SCT025CB BKN040=



000
FTUS43 KDMX 271141
TAFOTM
TAF
KOTM 271141Z 2712/2812 09006KT P6SM SCT080 BKN150
      TEMPO 2712/2715 4SM -TSRA BKN040CB
     FM281000 12007KT P6SM VCTS SCT030 BKN050CB=



000
FTUS43 KDMX 271141
TAFMCW
TAF
KMCW 271141Z 2712/2812 06006KT P6SM SCT025 BKN150
      TEMPO 2712/2715 BKN025
     FM271500 10007KT P6SM SCT040 BKN060
     FM280700 12007KT P6SM VCTS SCT015CB BKN035=



000
FTUS43 KDMX 271141
TAFDSM
TAF
KDSM 271141Z 2712/2812 08007KT P6SM VCTS SCT025 BKN050CB
     FM271500 10007KT P6SM SCT040 BKN080
     FM280300 10006KT P6SM VCTS SCT025CB BKN035=



000
FTUS43 KDMX 271141
TAFALO
TAF
KALO 271141Z 2712/2812 07006KT P6SM SCT060 BKN100
     FM280800 11006KT P6SM VCTS SCT025CB BKN040=



000
FTUS43 KDMX 271141
TAFMCW
TAF
KMCW 271141Z 2712/2812 06006KT P6SM SCT025 BKN150
      TEMPO 2712/2715 BKN025
     FM271500 10007KT P6SM SCT040 BKN060
     FM280700 12007KT P6SM VCTS SCT015CB BKN035=



000
FTUS43 KDMX 271141
TAFDSM
TAF
KDSM 271141Z 2712/2812 08007KT P6SM VCTS SCT025 BKN050CB
     FM271500 10007KT P6SM SCT040 BKN080
     FM280300 10006KT P6SM VCTS SCT025CB BKN035=



000
FTUS43 KDMX 271141
TAFFOD
TAF
KFOD 271141Z 2712/2812 07006KT P6SM SCT040 BKN070
     FM271600 11006KT P6SM SCT040 BKN080
     FM280400 13005KT P6SM VCTS SCT025CB BKN040=



000
FTUS43 KDMX 271141
TAFALO
TAF
KALO 271141Z 2712/2812 07006KT P6SM SCT060 BKN100
     FM280800 11006KT P6SM VCTS SCT025CB BKN040=



000
FTUS43 KDMX 271141
TAFOTM
TAF
KOTM 271141Z 2712/2812 09006KT P6SM SCT080 BKN150
      TEMPO 2712/2715 4SM -TSRA BKN040CB
     FM281000 12007KT P6SM VCTS SCT030 BKN050CB=



    US Dept of Commerce
    National Oceanic and Atmospheric Administration
    National Weather Service
    1325 East West Highway
    Silver Spring, MD 20910
    Page Author: NWS Internet Services Team
Disclaimer
Information Quality
Credits
Glossary
Privacy Policy
Freedom of Information Act (FOIA)
About Us
Career Opportunities